createdAt,value
2024-02-20T00:02:09.399Z,8.72
2024-02-20T00:04:36.791Z,8.66
2024-02-20T00:07:04.416Z,8.55
2024-02-20T00:09:31.699Z,8.49
2024-02-20T00:11:58.642Z,8.44
2024-02-20T00:14:25.737Z,8.45
2024-02-20T00:16:53.513Z,8.51
2024-02-20T00:19:21.266Z,8.60
2024-02-20T00:21:48.351Z,8.70
2024-02-20T00:24:15.462Z,8.80
2024-02-20T00:26:44.850Z,8.89
2024-02-20T00:29:12.145Z,8.92
2024-02-20T00:31:39.378Z,8.89
2024-02-20T00:34:06.757Z,8.91
2024-02-20T00:36:34.283Z,8.81
2024-02-20T00:39:03.792Z,8.59
2024-02-20T00:41:32.013Z,8.37
2024-02-20T00:43:59.250Z,8.24
2024-02-20T00:46:26.447Z,8.12
2024-02-20T00:48:53.417Z,8.04
2024-02-20T00:51:22.890Z,7.97
2024-02-20T00:53:50.351Z,7.90
2024-02-20T00:56:17.852Z,7.78
2024-02-20T00:58:45.650Z,7.68
2024-02-20T01:01:13.794Z,7.69
2024-02-20T01:03:45.031Z,7.80
2024-02-20T01:06:12.302Z,7.86
2024-02-20T01:08:40.632Z,7.87
2024-02-20T01:11:08.063Z,7.90
2024-02-20T01:13:35.846Z,7.92
2024-02-20T01:16:03.100Z,7.83
2024-02-20T01:18:30.347Z,7.75
2024-02-20T01:20:57.546Z,7.74
2024-02-20T01:23:24.683Z,7.70
2024-02-20T01:25:51.716Z,7.64
2024-02-20T01:28:18.799Z,7.62
2024-02-20T01:30:47.693Z,7.61
2024-02-20T01:33:14.901Z,7.59
2024-02-20T01:35:42.160Z,7.58
2024-02-20T01:38:09.244Z,7.65
2024-02-20T01:40:40.527Z,7.77
2024-02-20T01:43:07.996Z,7.86
2024-02-20T01:45:35.712Z,7.93
2024-02-20T01:48:05.008Z,7.97
2024-02-20T01:50:35.769Z,8.00
2024-02-20T01:53:04.091Z,7.95
2024-02-20T01:55:33.412Z,7.94
2024-02-20T01:58:01.487Z,7.95
2024-02-20T02:00:29.013Z,7.94
2024-02-20T02:02:57.253Z,7.85
2024-02-20T02:05:24.830Z,7.81
2024-02-20T02:07:52.173Z,7.83
2024-02-20T02:10:19.499Z,7.85
2024-02-20T02:12:46.725Z,7.90
2024-02-20T02:15:13.698Z,7.96
2024-02-20T02:17:41.014Z,8.01
2024-02-20T02:20:09.240Z,8.03
2024-02-20T02:22:36.867Z,8.04
2024-02-20T02:25:04.975Z,8.06
2024-02-20T02:27:32.194Z,8.10
2024-02-20T02:29:59.353Z,8.17
2024-02-20T02:32:26.450Z,8.17
2024-02-20T02:34:53.673Z,8.11
2024-02-20T02:37:21.040Z,8.06
2024-02-20T02:39:48.054Z,8.02
2024-02-20T02:42:15.335Z,7.99
2024-02-20T02:44:44.624Z,7.96
2024-02-20T02:47:11.633Z,7.95
2024-02-20T02:49:38.906Z,7.94
2024-02-20T02:52:07.277Z,7.90
2024-02-20T02:54:34.255Z,7.87
2024-02-20T02:57:01.129Z,7.82
2024-02-20T02:59:28.141Z,7.76
2024-02-20T03:01:55.452Z,7.70
2024-02-20T03:04:22.593Z,7.62
2024-02-20T03:06:51.257Z,7.57
2024-02-20T03:09:22.519Z,7.54
2024-02-20T03:11:49.521Z,7.51
2024-02-20T03:14:17.558Z,7.54
2024-02-20T03:16:45.189Z,7.51
2024-02-20T03:19:12.616Z,7.48
2024-02-20T03:21:40.136Z,7.47
2024-02-20T03:24:07.258Z,7.42
2024-02-20T03:26:34.500Z,7.44
2024-02-20T03:29:01.859Z,7.44
2024-02-20T03:31:29.939Z,7.45
2024-02-20T03:33:57.608Z,7.52
2024-02-20T03:36:25.006Z,7.50
2024-02-20T03:38:52.222Z,7.52
2024-02-20T03:41:19.285Z,7.51
2024-02-20T03:43:46.400Z,7.58
2024-02-20T03:46:13.564Z,7.63
2024-02-20T03:48:40.935Z,7.67
2024-02-20T03:51:08.147Z,7.67
2024-02-20T03:53:35.388Z,7.69
2024-02-20T03:56:02.758Z,7.70
2024-02-20T03:58:30.292Z,7.65
2024-02-20T04:00:57.524Z,7.60
2024-02-20T04:03:24.732Z,7.56
2024-02-20T04:05:51.829Z,7.52
2024-02-20T04:08:19.961Z,7.51
2024-02-20T04:10:47.328Z,7.46
2024-02-20T04:13:15.371Z,7.43
2024-02-20T04:15:42.709Z,7.41
2024-02-20T04:18:09.748Z,7.40
2024-02-20T04:20:36.958Z,7.38
2024-02-20T04:23:07.387Z,7.36
2024-02-20T04:25:34.567Z,7.33
2024-02-20T04:28:01.861Z,7.23
2024-02-20T04:30:29.106Z,7.13
2024-02-20T04:32:56.894Z,7.07
2024-02-20T04:35:24.101Z,6.97
2024-02-20T04:37:51.245Z,6.79
2024-02-20T04:40:19.341Z,6.75
2024-02-20T04:42:46.410Z,6.79
2024-02-20T04:45:13.632Z,6.83
2024-02-20T04:47:41.137Z,6.88
2024-02-20T04:50:08.698Z,6.85
2024-02-20T04:52:35.937Z,6.83
2024-02-20T04:55:03.418Z,6.84
2024-02-20T04:57:30.587Z,6.81
2024-02-20T04:59:57.794Z,6.76
2024-02-20T05:02:25.208Z,6.78
2024-02-20T05:04:55.323Z,6.74
2024-02-20T05:07:24.208Z,6.79
2024-02-20T05:09:51.365Z,6.82
2024-02-20T05:12:18.618Z,6.89
2024-02-20T05:14:50.518Z,6.93
2024-02-20T05:17:17.828Z,6.94
2024-02-20T05:19:45.096Z,6.89
2024-02-20T05:22:13.355Z,6.87
2024-02-20T05:24:43.328Z,6.82
2024-02-20T05:27:10.416Z,6.71
2024-02-20T05:29:37.422Z,6.64
2024-02-20T05:32:04.794Z,6.69
2024-02-20T05:34:32.140Z,6.68
2024-02-20T05:36:59.407Z,6.74
2024-02-20T05:39:26.991Z,6.72
2024-02-20T05:41:54.176Z,6.72
2024-02-20T05:44:21.516Z,6.75
2024-02-20T05:46:48.540Z,6.76
2024-02-20T05:49:15.988Z,6.78
2024-02-20T05:51:43.129Z,6.81
2024-02-20T05:54:10.368Z,6.84
2024-02-20T05:56:37.645Z,6.85
2024-02-20T05:59:06.087Z,6.93
2024-02-20T06:01:33.307Z,7.00
2024-02-20T06:04:05.518Z,7.08
2024-02-20T06:06:35.327Z,7.17
2024-02-20T06:09:03.552Z,7.19
2024-02-20T06:11:30.910Z,7.25
2024-02-20T06:13:58.132Z,7.33
2024-02-20T06:16:26.830Z,7.44
2024-02-20T06:18:54.272Z,7.56
2024-02-20T06:21:23.315Z,7.63
2024-02-20T06:23:51.974Z,7.68
2024-02-20T06:26:19.507Z,7.74
2024-02-20T06:28:47.685Z,7.75
2024-02-20T06:31:15.457Z,7.80
2024-02-20T06:33:43.016Z,7.86
2024-02-20T06:36:11.392Z,7.84
2024-02-20T06:38:38.936Z,7.98
2024-02-20T06:41:06.511Z,8.07
2024-02-20T06:43:38.644Z,8.17
2024-02-20T06:46:06.310Z,8.20
2024-02-20T06:48:33.438Z,8.27
2024-02-20T06:51:01.966Z,8.36
2024-02-20T06:53:29.434Z,8.48
2024-02-20T06:55:56.466Z,8.65
2024-02-20T06:58:23.484Z,8.83
2024-02-20T07:00:50.811Z,9.05
2024-02-20T07:03:18.286Z,9.45
2024-02-20T07:05:45.684Z,10.20
2024-02-20T07:08:13.064Z,11.36
2024-02-20T07:10:40.111Z,12.55
2024-02-20T07:13:07.143Z,13.42
2024-02-20T07:15:34.513Z,14.10
2024-02-20T07:18:01.983Z,14.79
2024-02-20T07:20:29.402Z,15.48
2024-02-20T07:22:56.752Z,15.77
2024-02-20T07:25:25.778Z,15.79
2024-02-20T07:27:52.685Z,15.89
2024-02-20T07:30:20.072Z,16.28
2024-02-20T07:32:47.446Z,16.76
2024-02-20T07:35:15.738Z,17.60
2024-02-20T07:37:43.335Z,18.15
2024-02-20T07:40:11.853Z,18.88
2024-02-20T07:42:39.906Z,19.63
2024-02-20T07:45:07.841Z,20.40
2024-02-20T07:47:38.366Z,20.89
2024-02-20T07:50:06.778Z,21.80
2024-02-20T07:52:34.700Z,22.56
2024-02-20T07:55:03.326Z,23.08
2024-02-20T07:57:34.415Z,23.39
2024-02-20T08:00:06.024Z,23.85
2024-02-20T08:02:33.736Z,24.48
2024-02-20T08:05:02.411Z,25.12
2024-02-20T08:07:29.626Z,25.87
2024-02-20T08:09:57.062Z,26.49
2024-02-20T08:12:25.436Z,26.72
2024-02-20T08:14:52.462Z,26.23
2024-02-20T08:17:23.034Z,26.44
2024-02-20T08:19:50.623Z,26.15
2024-02-20T08:22:17.818Z,25.22
2024-02-20T08:24:45.790Z,24.39
2024-02-20T08:27:12.963Z,23.53
2024-02-20T08:29:40.421Z,22.77
2024-02-20T08:32:07.698Z,22.00
2024-02-20T08:34:34.900Z,21.35
2024-02-20T08:37:01.937Z,20.76
2024-02-20T08:39:29.548Z,20.07
2024-02-20T08:41:56.839Z,19.74
2024-02-20T08:44:27.488Z,19.38
2024-02-20T08:46:56.046Z,18.95
2024-02-20T08:49:23.866Z,18.61
2024-02-20T08:51:51.803Z,18.45
2024-02-20T08:54:19.031Z,18.31
2024-02-20T08:56:46.179Z,18.19
2024-02-20T08:59:13.314Z,18.07
2024-02-20T09:01:41.353Z,18.25
2024-02-20T09:04:09.233Z,18.68
2024-02-20T09:06:36.690Z,19.20
2024-02-20T09:09:03.930Z,19.79
2024-02-20T09:11:31.436Z,20.29
2024-02-20T09:13:58.892Z,20.96
2024-02-20T09:16:26.314Z,21.90
2024-02-20T09:18:53.615Z,22.90
2024-02-20T09:21:20.895Z,24.14
2024-02-20T09:23:49.282Z,25.56
2024-02-20T09:26:16.437Z,26.84
2024-02-20T09:28:44.089Z,28.03
2024-02-20T09:31:11.696Z,28.92
2024-02-20T09:33:39.072Z,29.81
2024-02-20T09:36:08.474Z,30.44
2024-02-20T09:38:36.190Z,30.65
2024-02-20T09:41:05.829Z,31.06
2024-02-20T09:43:33.629Z,31.51
2024-02-20T09:46:07.954Z,32.53
2024-02-20T09:48:35.821Z,33.11
2024-02-20T09:51:05.638Z,33.93
2024-02-20T09:53:35.811Z,34.12
2024-02-20T09:56:04.021Z,33.53
2024-02-20T09:58:33.965Z,33.41
2024-02-20T10:01:05.847Z,33.80
2024-02-20T10:03:35.113Z,33.48
2024-02-20T10:06:04.690Z,33.08
2024-02-20T10:08:33.505Z,34.28
2024-02-20T10:11:01.203Z,34.69
2024-02-20T10:13:28.727Z,34.74
2024-02-20T10:16:05.764Z,34.77
2024-02-20T10:18:33.172Z,35.20
2024-02-20T10:21:04.674Z,35.85
2024-02-20T10:23:32.067Z,36.20
2024-02-20T10:26:00.144Z,35.66
2024-02-20T10:28:27.682Z,35.28
2024-02-20T10:30:56.693Z,34.90
2024-02-20T10:33:24.447Z,34.39
2024-02-20T10:36:03.972Z,33.76
2024-02-20T10:38:31.845Z,33.70
2024-02-20T10:41:00.644Z,33.83
2024-02-20T10:43:28.844Z,35.08
2024-02-20T10:45:57.389Z,36.07
2024-02-20T10:48:31.484Z,36.56
2024-02-20T10:51:00.734Z,37.11
2024-02-20T10:53:30.481Z,37.41
2024-02-20T10:56:02.888Z,37.58
2024-02-20T10:58:31.664Z,37.76
2024-02-20T11:00:59.558Z,37.65
2024-02-20T11:03:31.149Z,37.60
2024-02-20T11:06:01.929Z,37.07
2024-02-20T11:08:29.799Z,37.05
2024-02-20T11:10:57.507Z,37.71
2024-02-20T11:13:29.441Z,38.36
2024-02-20T11:15:57.418Z,38.42
2024-02-20T11:18:28.175Z,38.70
2024-02-20T11:21:07.924Z,38.54
2024-02-20T11:23:38.591Z,38.56
2024-02-20T11:26:09.778Z,38.90
2024-02-20T11:28:38.196Z,38.90
2024-02-20T11:31:06.980Z,38.15
2024-02-20T11:33:35.668Z,37.39
2024-02-20T11:36:05.551Z,36.49
2024-02-20T11:38:34.585Z,35.93
2024-02-20T11:41:07.148Z,35.77
2024-02-20T11:43:35.289Z,35.66
2024-02-20T11:46:03.550Z,36.07
2024-02-20T11:48:32.475Z,35.92
2024-02-20T11:51:01.364Z,35.95
2024-02-20T11:53:28.889Z,36.25
2024-02-20T11:55:57.445Z,35.59
2024-02-20T11:58:28.758Z,35.15
2024-02-20T12:01:06.670Z,34.69
2024-02-20T12:03:36.768Z,34.03
2024-02-20T12:06:06.696Z,34.16
2024-02-20T12:08:54.231Z,34.02
2024-02-20T12:11:25.374Z,33.48
2024-02-20T12:13:54.661Z,33.55
2024-02-20T12:16:28.783Z,32.43
2024-02-20T12:19:03.648Z,33.32
2024-02-20T12:21:40.119Z,33.67
2024-02-20T12:24:11.213Z,33.40
2024-02-20T12:26:38.720Z,33.34
2024-02-20T12:29:06.962Z,33.13
2024-02-20T12:31:35.445Z,33.58
2024-02-20T12:34:06.267Z,33.95
2024-02-20T12:36:34.846Z,34.45
2024-02-20T12:39:03.043Z,35.31
2024-02-20T12:41:31.715Z,35.50
2024-02-20T12:43:59.199Z,35.99
2024-02-20T12:46:26.876Z,36.10
2024-02-20T12:48:56.355Z,35.85
2024-02-20T12:51:28.204Z,36.00
2024-02-20T12:53:56.723Z,36.55
2024-02-20T12:56:25.761Z,36.60
2024-02-20T12:58:53.165Z,36.36
2024-02-20T13:01:20.539Z,36.10
2024-02-20T13:03:48.221Z,35.99
2024-02-20T13:06:15.812Z,35.96
2024-02-20T13:08:43.298Z,35.74
2024-02-20T13:11:11.327Z,35.55
2024-02-20T13:13:38.800Z,34.88
2024-02-20T13:16:06.948Z,34.72
2024-02-20T13:18:34.505Z,35.05
2024-02-20T13:21:05.825Z,35.16
2024-02-20T13:23:33.054Z,34.44
2024-02-20T13:26:00.755Z,34.57
2024-02-20T13:28:28.327Z,34.50
2024-02-20T13:30:55.468Z,34.47
2024-02-20T13:33:23.468Z,33.01
2024-02-20T13:35:51.137Z,31.18
2024-02-20T13:38:18.515Z,31.25
2024-02-20T13:40:45.895Z,32.05
2024-02-20T13:43:13.395Z,32.63
2024-02-20T13:45:50.051Z,32.33
2024-02-20T13:48:18.107Z,30.96
2024-02-20T13:50:47.453Z,29.41
2024-02-20T13:53:16.774Z,28.01
2024-02-20T13:55:47.574Z,27.32
2024-02-20T13:58:15.376Z,27.59
2024-02-20T14:00:46.313Z,27.33
2024-02-20T14:03:18.109Z,27.80
2024-02-20T14:05:46.349Z,27.93
2024-02-20T14:08:14.716Z,28.93
2024-02-20T14:10:42.033Z,29.83
2024-02-20T14:13:09.669Z,29.68
2024-02-20T14:15:37.943Z,28.64
2024-02-20T14:18:05.815Z,27.96
2024-02-20T14:20:35.560Z,27.57
2024-02-20T14:23:05.656Z,27.29
2024-02-20T14:25:34.533Z,25.94
2024-02-20T14:28:04.503Z,25.65
2024-02-20T14:30:35.305Z,26.77
2024-02-20T14:33:05.746Z,27.31
2024-02-20T14:35:33.233Z,27.61
2024-02-20T14:38:01.502Z,28.30
2024-02-20T14:40:28.981Z,28.45
2024-02-20T14:42:57.754Z,28.71
2024-02-20T14:45:25.482Z,28.99
2024-02-20T14:47:52.900Z,29.17
2024-02-20T14:50:21.829Z,28.52
2024-02-20T14:52:49.352Z,28.71
2024-02-20T14:55:17.465Z,29.04
2024-02-20T14:57:48.495Z,29.20
2024-02-20T15:00:17.134Z,28.67
2024-02-20T15:02:44.723Z,28.21
2024-02-20T15:05:15.811Z,28.13
2024-02-20T15:07:43.152Z,27.55
2024-02-20T15:10:13.634Z,27.94
2024-02-20T15:12:42.855Z,28.00
2024-02-20T15:15:16.810Z,27.85
2024-02-20T15:17:46.275Z,27.66
2024-02-20T15:20:14.180Z,27.65
2024-02-20T15:22:41.651Z,27.41
2024-02-20T15:25:16.298Z,27.15
2024-02-20T15:27:48.533Z,26.68
2024-02-20T15:30:17.272Z,26.41
2024-02-20T15:32:46.383Z,26.57
2024-02-20T15:35:14.708Z,26.33
2024-02-20T15:37:45.980Z,26.24
2024-02-20T15:40:13.965Z,26.37
2024-02-20T15:42:44.915Z,26.28
2024-02-20T15:45:12.693Z,26.23
2024-02-20T15:47:41.124Z,26.06
2024-02-20T15:50:09.155Z,26.08
2024-02-20T15:52:39.075Z,26.09
2024-02-20T15:55:08.090Z,25.94
2024-02-20T15:57:36.156Z,25.68
2024-02-20T16:00:05.648Z,25.53
2024-02-20T16:02:34.691Z,25.59
2024-02-20T16:05:04.476Z,25.35
2024-02-20T16:07:32.117Z,24.93
2024-02-20T16:09:59.488Z,24.37
2024-02-20T16:12:28.025Z,24.05
2024-02-20T16:15:00.158Z,23.83
2024-02-20T16:17:29.648Z,23.42
2024-02-20T16:19:57.563Z,23.09
2024-02-20T16:22:25.927Z,22.85
2024-02-20T16:24:53.948Z,22.53
2024-02-20T16:27:21.905Z,22.16
2024-02-20T16:29:56.956Z,21.78
2024-02-20T16:34:53.541Z,20.94
2024-02-20T16:37:21.710Z,20.58
2024-02-20T16:39:49.091Z,20.16
2024-02-20T16:42:17.838Z,19.79
2024-02-20T16:44:45.798Z,19.34
2024-02-20T16:47:13.377Z,19.03
2024-02-20T16:49:41.242Z,18.67
2024-02-20T16:52:11.940Z,18.47
2024-02-20T16:54:39.214Z,18.25
2024-02-20T16:57:11.108Z,18.06
2024-02-20T16:59:42.191Z,17.84
2024-02-20T17:02:09.831Z,17.71
2024-02-20T17:04:38.840Z,17.54
2024-02-20T17:07:06.329Z,17.40
2024-02-20T17:09:33.915Z,17.30
2024-02-20T17:12:01.683Z,17.17
2024-02-20T17:14:29.416Z,17.07
2024-02-20T17:16:57.585Z,16.96
2024-02-20T17:19:25.336Z,16.85
2024-02-20T17:21:53.251Z,16.71
2024-02-20T17:24:20.631Z,16.60
2024-02-20T17:26:50.669Z,16.53
2024-02-20T17:29:19.389Z,16.44
2024-02-20T17:31:46.763Z,16.39
2024-02-20T17:34:14.216Z,16.35
2024-02-20T17:36:41.990Z,16.30
2024-02-20T17:39:09.700Z,16.22
2024-02-20T17:41:37.975Z,16.17
2024-02-20T17:44:05.225Z,16.13
2024-02-20T17:46:32.793Z,16.10
2024-02-20T17:49:01.070Z,16.04
2024-02-20T17:51:28.914Z,15.94
2024-02-20T17:53:57.493Z,15.81
2024-02-20T17:56:25.027Z,15.72
2024-02-20T17:58:52.235Z,15.66
2024-02-20T18:01:22.565Z,15.56
2024-02-20T18:03:50.897Z,15.50
2024-02-20T18:06:18.824Z,15.40
2024-02-20T18:08:46.654Z,15.31
2024-02-20T18:11:15.810Z,15.23
2024-02-20T18:13:43.652Z,15.24
2024-02-20T18:16:15.006Z,15.18
2024-02-20T18:18:42.759Z,15.03
2024-02-20T18:21:10.376Z,14.88
2024-02-20T18:23:38.236Z,14.68
2024-02-20T18:26:05.842Z,14.50
2024-02-20T18:28:35.135Z,14.39
2024-02-20T18:31:02.453Z,14.34
2024-02-20T18:33:29.873Z,14.28
2024-02-20T18:35:57.880Z,14.20
2024-02-20T18:38:27.480Z,14.05
2024-02-20T18:40:55.935Z,13.96
2024-02-20T18:43:24.709Z,13.84
2024-02-20T18:45:53.994Z,13.68
2024-02-20T18:48:24.922Z,13.50
2024-02-20T18:50:52.562Z,13.18
2024-02-20T18:53:20.130Z,12.91
2024-02-20T18:55:52.677Z,12.68
2024-02-20T18:58:21.758Z,12.54
2024-02-20T19:00:51.811Z,12.39
2024-02-20T19:03:19.480Z,12.27
2024-02-20T19:05:47.537Z,12.15
2024-02-20T19:08:15.358Z,12.08
2024-02-20T19:10:42.608Z,12.00
2024-02-20T19:13:10.360Z,11.88
2024-02-20T19:15:38.423Z,11.81
2024-02-20T19:18:06.495Z,11.83
2024-02-20T19:20:34.230Z,11.84
2024-02-20T19:23:02.169Z,11.86
2024-02-20T19:25:30.681Z,11.86
2024-02-20T19:27:58.391Z,11.84
2024-02-20T19:30:26.359Z,11.81
2024-02-20T19:32:56.791Z,11.79
2024-02-20T19:35:26.382Z,11.68
2024-02-20T19:37:54.465Z,11.66
2024-02-20T19:40:22.337Z,11.61
2024-02-20T19:42:50.619Z,11.54
2024-02-20T19:45:19.056Z,11.49
2024-02-20T19:47:49.008Z,11.43
2024-02-20T19:50:17.791Z,11.38
2024-02-20T19:52:46.045Z,11.36
2024-02-20T19:55:15.987Z,11.32
2024-02-20T19:57:43.889Z,11.29
2024-02-20T20:00:13.772Z,11.28
2024-02-20T20:02:42.170Z,11.27
2024-02-20T20:05:10.500Z,11.30
2024-02-20T20:07:39.227Z,11.36
2024-02-20T20:10:08.773Z,11.38
2024-02-20T20:12:37.990Z,11.35
2024-02-20T20:15:07.234Z,11.25
2024-02-20T20:17:35.897Z,11.04
2024-02-20T20:20:04.447Z,10.83
2024-02-20T20:22:33.304Z,10.68
2024-02-20T20:25:01.290Z,10.58
2024-02-20T20:27:29.366Z,10.51
2024-02-20T20:29:57.051Z,10.46
2024-02-20T20:32:24.696Z,10.43
2024-02-20T20:34:52.233Z,10.37
2024-02-20T20:37:24.035Z,10.36
2024-02-20T20:39:55.444Z,10.34
2024-02-20T20:42:23.939Z,10.37
2024-02-20T20:44:53.711Z,10.40
2024-02-20T20:47:28.840Z,10.40
2024-02-20T20:49:57.115Z,10.43
2024-02-20T20:52:24.810Z,10.45
2024-02-20T20:54:53.070Z,10.43
2024-02-20T20:57:22.603Z,10.41
2024-02-20T20:59:52.162Z,10.31
2024-02-20T21:02:21.792Z,10.15
2024-02-20T21:04:50.014Z,9.98
2024-02-20T21:07:18.783Z,9.78
2024-02-20T21:10:06.689Z,9.62
2024-02-20T21:12:34.999Z,9.64
2024-02-20T21:15:05.688Z,9.67
2024-02-20T21:17:33.570Z,9.73
2024-02-20T21:20:01.693Z,9.73
2024-02-20T21:22:29.610Z,9.74
2024-02-20T21:24:57.053Z,9.73
2024-02-20T21:27:24.670Z,9.68
2024-02-20T21:29:52.363Z,9.62
2024-02-20T21:32:20.123Z,9.52
2024-02-20T21:34:48.426Z,9.41
2024-02-20T21:37:18.081Z,9.33
2024-02-20T21:39:45.847Z,9.27
2024-02-20T21:42:14.663Z,9.25
2024-02-20T21:44:42.533Z,9.20
2024-02-20T21:47:10.880Z,9.10
2024-02-20T21:49:39.111Z,9.06
2024-02-20T21:52:08.514Z,9.07
2024-02-20T21:54:36.012Z,9.06
2024-02-20T21:57:03.597Z,9.05
2024-02-20T21:59:32.467Z,9.00
2024-02-20T22:02:00.099Z,8.89
2024-02-20T22:04:28.237Z,8.71
2024-02-20T22:06:56.055Z,8.57
2024-02-20T22:09:23.808Z,8.51
2024-02-20T22:11:52.140Z,8.46
2024-02-20T22:14:20.069Z,8.39
2024-02-20T22:16:48.438Z,8.32
2024-02-20T22:19:17.037Z,8.25
2024-02-20T22:21:46.634Z,8.17
2024-02-20T22:24:16.028Z,8.09
2024-02-20T22:26:44.758Z,8.05
2024-02-20T22:29:13.386Z,7.99
2024-02-20T22:31:41.576Z,7.94
2024-02-20T22:34:10.191Z,7.92
2024-02-20T22:36:37.804Z,7.90
2024-02-20T22:39:05.339Z,7.94
2024-02-20T22:41:33.139Z,7.92
2024-02-20T22:44:01.100Z,7.91
2024-02-20T22:46:28.504Z,7.82
2024-02-20T22:48:56.070Z,7.81
2024-02-20T22:51:23.910Z,7.69
2024-02-20T22:53:51.191Z,7.65
2024-02-20T22:56:18.459Z,7.71
2024-02-20T22:58:45.671Z,7.76
2024-02-20T23:01:12.838Z,7.79
2024-02-20T23:03:40.168Z,7.79
2024-02-20T23:06:07.344Z,7.78
2024-02-20T23:08:35.285Z,7.74
2024-02-20T23:11:02.470Z,7.68
2024-02-20T23:13:29.694Z,7.65
2024-02-20T23:15:57.009Z,7.64
2024-02-20T23:18:24.270Z,7.54
2024-02-20T23:20:51.435Z,7.46
2024-02-20T23:23:18.473Z,7.41
2024-02-20T23:25:45.523Z,7.35
2024-02-20T23:28:12.876Z,7.35
2024-02-20T23:30:39.971Z,7.39
2024-02-20T23:33:07.323Z,7.40
2024-02-20T23:35:34.469Z,7.41
2024-02-20T23:38:01.757Z,7.39
2024-02-20T23:40:28.802Z,7.36
2024-02-20T23:42:56.188Z,7.36
2024-02-20T23:45:23.400Z,7.35
2024-02-20T23:47:50.494Z,7.39
2024-02-20T23:50:17.751Z,7.44
2024-02-20T23:52:44.952Z,7.44
2024-02-20T23:55:12.261Z,7.29
2024-02-20T23:57:39.584Z,7.11
